createdAt,value
2018-03-20T00:01:20.332Z,53.92
2018-03-20T00:03:47.905Z,51.47
2018-03-20T00:06:15.441Z,57.92
2018-03-20T00:08:42.975Z,50.08
2018-03-20T00:11:10.559Z,50.30
2018-03-20T00:13:38.099Z,46.78
2018-03-20T00:16:06.411Z,51.97
2018-03-20T00:18:33.983Z,46.08
2018-03-20T00:21:01.525Z,43.75
2018-03-20T00:23:29.062Z,43.55
2018-03-20T00:25:57.390Z,56.90
2018-03-20T00:28:24.927Z,45.15
2018-03-20T00:30:52.452Z,36.38
2018-03-20T00:33:20.800Z,45.83
2018-03-20T00:35:48.343Z,42.85
2018-03-20T00:38:15.889Z,42.88
2018-03-20T00:40:43.448Z,43.00
2018-03-20T00:43:10.987Z,34.42
2018-03-20T00:45:38.516Z,44.75
2018-03-20T00:48:06.163Z,44.35
2018-03-20T00:50:33.723Z,37.88
2018-03-20T00:53:01.266Z,51.25
2018-03-20T00:55:28.808Z,41.72
2018-03-20T00:57:56.334Z,46.70
2018-03-20T01:00:24.631Z,46.42
2018-03-20T01:02:52.201Z,54.15
2018-03-20T01:05:19.747Z,40.38
2018-03-20T01:07:47.281Z,46.88
2018-03-20T01:10:15.599Z,39.53
2018-03-20T01:12:43.142Z,38.15
2018-03-20T01:15:10.692Z,37.00
2018-03-20T01:17:38.265Z,39.88
2018-03-20T01:20:05.806Z,33.53
2018-03-20T01:22:34.115Z,42.13
2018-03-20T01:25:01.691Z,37.25
2018-03-20T01:27:29.211Z,40.88
2018-03-20T01:29:56.754Z,44.72
2018-03-20T01:32:25.073Z,36.03
2018-03-20T01:34:52.603Z,38.95
2018-03-20T01:37:20.129Z,37.63
2018-03-20T01:39:47.690Z,42.00
2018-03-20T01:42:15.230Z,41.05
2018-03-20T01:44:42.770Z,38.85
2018-03-20T01:47:10.340Z,39.80
2018-03-20T01:49:37.889Z,39.83
2018-03-20T01:52:05.416Z,36.90
2018-03-20T01:54:32.972Z,38.95
2018-03-20T01:57:01.275Z,46.03
2018-03-20T01:59:28.814Z,50.90
2018-03-20T02:01:56.383Z,38.88
2018-03-20T02:04:23.913Z,53.70
2018-03-20T02:06:52.214Z,39.28
2018-03-20T02:09:19.765Z,42.58
2018-03-20T02:11:47.308Z,44.10
2018-03-20T02:14:15.619Z,39.33
2018-03-20T02:16:43.200Z,48.20
2018-03-20T02:19:10.722Z,38.80
2018-03-20T02:21:38.249Z,34.45
2018-03-20T02:24:05.809Z,39.33
2018-03-20T02:26:33.349Z,38.15
2018-03-20T02:29:00.892Z,37.20
2018-03-20T02:31:28.442Z,35.22
2018-03-20T02:33:55.994Z,42.03
2018-03-20T02:36:23.538Z,43.63
2018-03-20T02:38:51.103Z,43.85
2018-03-20T02:41:18.644Z,37.92
2018-03-20T02:43:46.956Z,38.60
2018-03-20T02:46:20.345Z,40.70
2018-03-20T02:48:47.885Z,36.83
2018-03-20T02:51:15.413Z,44.53
2018-03-20T02:53:42.970Z,36.78
2018-03-20T02:56:10.528Z,41.42
2018-03-20T02:58:38.067Z,39.58
2018-03-20T03:01:05.628Z,40.97
2018-03-20T03:03:33.172Z,39.08
2018-03-20T03:06:00.704Z,36.10
2018-03-20T03:08:28.262Z,46.05
2018-03-20T03:10:55.795Z,43.90
2018-03-20T03:13:23.332Z,36.60
2018-03-20T03:15:50.881Z,41.45
2018-03-20T03:18:18.447Z,39.50
2018-03-20T03:20:45.968Z,45.80
2018-03-20T03:23:13.539Z,38.33
2018-03-20T03:25:41.936Z,38.85
2018-03-20T03:28:09.494Z,42.15
2018-03-20T03:30:37.037Z,47.25
2018-03-20T03:33:04.603Z,41.70
2018-03-20T03:35:32.144Z,41.22
2018-03-20T03:37:59.703Z,37.13
2018-03-20T03:40:27.241Z,41.58
2018-03-20T03:42:55.551Z,62.58
2018-03-20T03:45:23.093Z,41.85
2018-03-20T03:47:50.646Z,43.17
2018-03-20T03:50:18.194Z,44.88
2018-03-20T03:52:46.486Z,44.88
2018-03-20T03:55:14.045Z,50.12
2018-03-20T03:57:41.592Z,52.38
2018-03-20T04:00:09.923Z,62.05
2018-03-20T04:02:37.454Z,42.00
2018-03-20T04:05:05.009Z,42.08
2018-03-20T04:07:32.536Z,35.53
2018-03-20T04:10:00.876Z,37.53
2018-03-20T04:12:28.415Z,32.70
2018-03-20T04:14:55.958Z,34.13
2018-03-20T04:17:23.505Z,36.85
2018-03-20T04:19:51.053Z,41.75
2018-03-20T04:22:19.373Z,35.90
2018-03-20T04:24:46.904Z,35.45
2018-03-20T04:27:14.458Z,36.35
2018-03-20T04:29:42.750Z,33.55
2018-03-20T04:32:10.301Z,41.58
2018-03-20T04:34:37.844Z,38.28
2018-03-20T04:37:06.197Z,33.58
2018-03-20T04:39:33.747Z,36.83
2018-03-20T04:42:01.289Z,39.17
2018-03-20T04:44:28.833Z,34.95
2018-03-20T04:46:56.357Z,41.28
2018-03-20T04:49:24.674Z,34.78
2018-03-20T04:51:52.200Z,35.05
2018-03-20T04:54:20.523Z,34.60
2018-03-20T04:56:48.051Z,35.17
2018-03-20T04:59:15.642Z,40.63
2018-03-20T05:01:43.169Z,35.92
2018-03-20T05:04:10.709Z,33.05
2018-03-20T05:06:39.047Z,36.90
2018-03-20T05:09:06.602Z,30.50
2018-03-20T05:11:34.160Z,30.73
2018-03-20T05:14:01.703Z,29.10
2018-03-20T05:16:29.252Z,32.90
2018-03-20T05:19:02.475Z,34.83
2018-03-20T05:21:40.683Z,37.92
2018-03-20T05:24:08.224Z,34.92
2018-03-20T05:26:35.785Z,33.83
2018-03-20T05:29:03.324Z,34.38
2018-03-20T05:31:30.877Z,31.73
2018-03-20T05:33:58.436Z,37.33
2018-03-20T05:36:25.973Z,28.52
2018-03-20T05:38:54.298Z,34.97
2018-03-20T05:41:21.826Z,34.22
2018-03-20T05:43:50.156Z,29.42
2018-03-20T05:49:35.623Z,33.83
2018-03-20T05:52:05.862Z,34.95
2018-03-20T05:54:33.413Z,35.22
2018-03-20T05:57:00.949Z,28.83
2018-03-20T05:59:28.512Z,33.50
2018-03-20T06:01:56.083Z,30.12
2018-03-20T06:04:24.354Z,31.20
2018-03-20T06:06:51.889Z,24.55
2018-03-20T06:09:20.189Z,33.15
2018-03-20T06:11:47.748Z,27.33
2018-03-20T06:14:15.283Z,26.00
2018-03-20T06:16:43.604Z,26.30
2018-03-20T06:19:11.132Z,26.73
2018-03-20T06:21:38.698Z,28.83
2018-03-20T06:24:06.232Z,42.17
2018-03-20T06:26:34.555Z,37.28
2018-03-20T06:29:02.114Z,31.55
2018-03-20T06:31:29.657Z,33.65
2018-03-20T06:33:57.210Z,22.85
2018-03-20T06:36:24.738Z,46.80
2018-03-20T06:38:53.072Z,31.02
2018-03-20T06:41:20.629Z,36.50
2018-03-20T06:43:48.176Z,32.95
2018-03-20T06:46:15.706Z,31.55
2018-03-20T06:48:44.044Z,38.33
2018-03-20T06:51:11.599Z,28.40
2018-03-20T06:53:39.149Z,30.52
2018-03-20T06:56:06.693Z,34.60
2018-03-20T06:58:34.220Z,30.75
2018-03-20T07:01:02.565Z,34.15
2018-03-20T07:03:30.103Z,34.30
2018-03-20T07:05:57.675Z,37.40
2018-03-20T07:08:25.225Z,34.03
2018-03-20T07:10:52.786Z,26.65
2018-03-20T07:13:20.338Z,29.37
2018-03-20T07:15:47.859Z,28.15
2018-03-20T07:18:16.166Z,35.67
2018-03-20T07:20:43.696Z,24.73
2018-03-20T07:23:12.019Z,34.92
2018-03-20T07:25:39.576Z,23.83
2018-03-20T07:28:07.125Z,29.30
2018-03-20T07:30:34.649Z,29.48
2018-03-20T07:33:02.983Z,27.60
2018-03-20T07:35:30.534Z,29.52
2018-03-20T07:37:58.110Z,20.90
2018-03-20T07:40:25.649Z,23.87
2018-03-20T07:42:53.183Z,23.85
2018-03-20T07:45:20.755Z,26.80
2018-03-20T07:47:48.299Z,29.40
2018-03-20T07:50:15.840Z,25.98
2018-03-20T07:52:44.147Z,22.85
2018-03-20T07:55:11.699Z,20.95
2018-03-20T07:57:39.241Z,21.98
2018-03-20T08:00:06.821Z,20.73
2018-03-20T08:02:34.339Z,19.15
2018-03-20T08:05:01.877Z,26.12
2018-03-20T08:07:29.442Z,25.02
2018-03-20T08:09:56.982Z,23.73
2018-03-20T08:12:24.525Z,20.80
2018-03-20T08:14:52.090Z,26.33
2018-03-20T08:17:20.413Z,31.45
2018-03-20T08:19:47.948Z,23.70
2018-03-20T08:22:15.501Z,29.83
2018-03-20T08:24:43.057Z,26.45
2018-03-20T08:27:11.377Z,33.13
2018-03-20T08:29:39.678Z,37.47
2018-03-20T08:32:07.209Z,26.45
2018-03-20T08:34:35.535Z,33.35
2018-03-20T08:37:03.073Z,29.92
2018-03-20T08:39:30.660Z,31.17
2018-03-20T08:41:58.197Z,32.17
2018-03-20T08:44:25.787Z,31.73
2018-03-20T08:46:53.311Z,26.20
2018-03-20T08:49:20.871Z,27.67
2018-03-20T08:51:48.418Z,28.45
2018-03-20T08:54:16.730Z,31.12
2018-03-20T08:56:44.262Z,29.50
2018-03-20T08:59:11.829Z,31.12
2018-03-20T09:01:39.380Z,32.83
2018-03-20T09:04:06.920Z,28.40
2018-03-20T09:06:35.343Z,27.60
2018-03-20T09:09:02.879Z,32.08
2018-03-20T09:11:30.429Z,34.35
2018-03-20T09:13:57.969Z,26.25
2018-03-20T09:16:26.319Z,37.47
2018-03-20T09:18:53.853Z,31.58
2018-03-20T09:21:21.401Z,27.55
2018-03-20T09:23:48.961Z,24.35
2018-03-20T09:26:16.488Z,37.00
2018-03-20T09:28:44.796Z,25.27
2018-03-20T09:33:47.000Z,30.40
2018-03-20T09:36:14.545Z,29.98
2018-03-20T09:38:42.113Z,24.30
2018-03-20T09:41:09.649Z,29.27
2018-03-20T09:43:37.210Z,35.00
2018-03-20T09:46:04.761Z,29.98
2018-03-20T09:48:32.298Z,34.38
2018-03-20T09:51:00.620Z,23.90
2018-03-20T09:53:28.168Z,30.70
2018-03-20T09:55:55.742Z,23.95
2018-03-20T09:58:23.271Z,26.37
2018-03-20T10:00:51.586Z,24.02
2018-03-20T10:03:19.116Z,25.67
2018-03-20T10:05:46.662Z,27.10
2018-03-20T10:08:14.946Z,24.92
2018-03-20T10:10:43.231Z,23.15
2018-03-20T10:13:10.766Z,27.98
2018-03-20T10:15:39.080Z,29.80
2018-03-20T10:18:06.644Z,30.02
2018-03-20T10:20:34.193Z,29.67
2018-03-20T10:23:01.742Z,26.65
2018-03-20T10:25:29.267Z,26.37
2018-03-20T10:27:56.814Z,23.38
2018-03-20T10:30:24.341Z,30.17
2018-03-20T10:32:51.860Z,22.85
2018-03-20T10:35:20.290Z,23.48
2018-03-20T10:37:47.832Z,19.45
2018-03-20T10:40:15.376Z,24.87
2018-03-20T10:42:42.901Z,23.98
2018-03-20T10:45:10.452Z,26.12
2018-03-20T10:47:38.001Z,20.62
2018-03-20T10:50:05.558Z,22.25
2018-03-20T10:52:33.099Z,23.08
2018-03-20T10:55:00.682Z,22.77
2018-03-20T10:57:28.217Z,18.23
2018-03-20T10:59:55.754Z,20.70
2018-03-20T11:02:28.915Z,18.75
2018-03-20T11:04:57.231Z,19.87
2018-03-20T11:07:24.806Z,27.73
2018-03-20T11:09:52.444Z,25.85
2018-03-20T11:12:19.994Z,20.92
2018-03-20T11:14:49.985Z,17.10
2018-03-20T11:17:17.524Z,17.80
2018-03-20T11:19:45.066Z,17.87
2018-03-20T11:22:12.600Z,19.83
2018-03-20T11:24:40.174Z,25.92
2018-03-20T11:27:07.704Z,22.58
2018-03-20T11:29:36.011Z,21.90
2018-03-20T11:32:03.538Z,21.67
2018-03-20T11:34:31.846Z,19.30
2018-03-20T11:36:59.396Z,17.60
2018-03-20T11:39:26.956Z,23.73
2018-03-20T11:41:54.496Z,24.33
2018-03-20T11:44:22.070Z,20.67
2018-03-20T11:46:49.595Z,24.40
2018-03-20T11:49:17.912Z,20.33
2018-03-20T11:51:45.471Z,24.00
2018-03-20T11:54:12.997Z,19.40
2018-03-20T11:56:41.311Z,22.42
2018-03-20T11:59:08.847Z,20.23
2018-03-20T12:01:37.172Z,19.70
2018-03-20T12:04:04.702Z,26.35
2018-03-20T12:06:32.243Z,24.65
2018-03-20T12:09:11.811Z,31.25
2018-03-20T12:11:39.372Z,29.08
2018-03-20T12:14:06.894Z,22.73
2018-03-20T12:16:35.205Z,20.95
2018-03-20T12:19:02.755Z,30.17
2018-03-20T12:21:30.296Z,22.42
2018-03-20T12:23:58.621Z,22.13
2018-03-20T12:26:26.147Z,19.27
2018-03-20T12:28:53.707Z,26.25
2018-03-20T12:31:21.231Z,20.83
2018-03-20T12:33:49.743Z,21.90
2018-03-20T12:36:17.262Z,25.80
2018-03-20T12:38:44.794Z,18.20
2018-03-20T12:41:12.335Z,20.42
2018-03-20T12:43:39.858Z,29.80
2018-03-20T12:46:08.163Z,20.33
2018-03-20T12:48:35.697Z,22.20
2018-03-20T12:51:04.002Z,21.50
2018-03-20T12:53:31.541Z,22.05
2018-03-20T12:55:59.847Z,20.10
2018-03-20T12:58:27.373Z,22.10
2018-03-20T13:00:55.683Z,17.83
2018-03-20T13:03:23.203Z,15.38
2018-03-20T13:05:51.487Z,18.52
2018-03-20T13:08:19.794Z,18.62
2018-03-20T13:10:47.313Z,23.12
2018-03-20T13:13:15.632Z,21.35
2018-03-20T13:15:43.157Z,20.12
2018-03-20T13:18:10.692Z,26.30
2018-03-20T13:20:38.227Z,19.70
2018-03-20T13:23:05.783Z,17.10
2018-03-20T13:25:33.304Z,17.98
2018-03-20T13:28:00.820Z,23.58
2018-03-20T13:30:28.358Z,18.80
2018-03-20T13:32:55.902Z,16.98
2018-03-20T13:35:23.438Z,19.75
2018-03-20T13:37:50.958Z,19.20
2018-03-20T13:40:18.582Z,22.40
2018-03-20T13:42:46.104Z,19.70
2018-03-20T13:45:13.638Z,16.52
2018-03-20T13:47:41.166Z,14.75
2018-03-20T13:50:08.712Z,18.60
2018-03-20T13:52:36.250Z,17.77
2018-03-20T13:55:03.783Z,18.77
2018-03-20T13:57:32.101Z,16.95
2018-03-20T13:59:59.627Z,16.33
2018-03-20T14:02:27.928Z,16.67
2018-03-20T14:04:55.453Z,18.25
2018-03-20T14:07:23.770Z,17.20
2018-03-20T14:09:51.310Z,12.40
2018-03-20T14:12:19.634Z,17.12
2018-03-20T14:14:47.153Z,15.60
2018-03-20T14:17:14.683Z,19.58
2018-03-20T14:19:42.227Z,15.55
2018-03-20T14:22:09.739Z,18.12
2018-03-20T14:24:37.299Z,16.77
2018-03-20T14:27:04.830Z,17.73
2018-03-20T14:29:33.131Z,18.10
2018-03-20T14:32:00.660Z,20.50
2018-03-20T14:34:28.969Z,18.42
2018-03-20T14:36:56.493Z,19.08
2018-03-20T14:39:24.908Z,28.87
2018-03-20T14:41:52.423Z,19.33
2018-03-20T14:44:19.947Z,19.20
2018-03-20T14:46:47.484Z,22.15
2018-03-20T14:49:15.000Z,16.08
2018-03-20T14:51:42.542Z,16.50
2018-03-20T14:54:10.083Z,19.30
2018-03-20T14:56:37.633Z,17.92
2018-03-20T14:59:05.158Z,16.17
2018-03-20T15:01:33.469Z,15.20
2018-03-20T15:04:00.988Z,19.42
2018-03-20T15:06:29.274Z,17.75
2018-03-20T15:08:57.589Z,17.80
2018-03-20T15:11:25.175Z,22.25
2018-03-20T15:13:52.665Z,21.65
2018-03-20T15:16:20.950Z,18.42
2018-03-20T15:18:48.480Z,19.85
2018-03-20T15:21:28.715Z,14.95
2018-03-20T15:23:56.270Z,15.52
2018-03-20T15:26:23.789Z,21.12
2018-03-20T15:28:51.343Z,17.45
2018-03-20T15:31:18.862Z,17.00
2018-03-20T15:33:46.390Z,14.77
2018-03-20T15:36:13.938Z,16.37
2018-03-20T15:38:41.474Z,15.48
2018-03-20T15:41:09.016Z,11.35
2018-03-20T15:43:37.301Z,9.23
2018-03-20T15:46:05.616Z,14.80
2018-03-20T15:48:33.137Z,11.90
2018-03-20T15:51:01.436Z,17.80
2018-03-20T15:53:28.963Z,14.38
2018-03-20T15:55:57.273Z,13.18
2018-03-20T15:58:24.808Z,12.65
2018-03-20T16:00:53.092Z,9.48
2018-03-20T16:03:21.400Z,14.85
2018-03-20T16:05:48.918Z,13.77
2018-03-20T16:08:17.244Z,12.82
2018-03-20T16:10:44.763Z,17.25
2018-03-20T16:13:13.069Z,13.90
2018-03-20T16:15:40.643Z,17.98
2018-03-20T16:18:08.194Z,18.65
2018-03-20T16:20:35.723Z,19.90
2018-03-20T16:23:03.235Z,22.73
2018-03-20T16:25:30.806Z,20.98
2018-03-20T16:27:58.323Z,15.70
2018-03-20T16:30:25.854Z,18.10
2018-03-20T16:32:54.155Z,17.95
2018-03-20T16:35:21.684Z,17.00
2018-03-20T16:37:49.961Z,17.52
2018-03-20T16:40:18.261Z,23.42
2018-03-20T16:42:45.793Z,22.05
2018-03-20T16:45:14.103Z,13.90
2018-03-20T16:47:41.622Z,15.95
2018-03-20T16:50:09.905Z,20.50
2018-03-20T16:52:38.204Z,16.17
2018-03-20T16:55:05.723Z,15.95
2018-03-20T16:57:33.259Z,17.35
2018-03-20T17:00:01.544Z,14.50
2018-03-20T17:02:29.117Z,20.02
2018-03-20T17:04:56.696Z,18.12
2018-03-20T17:07:24.967Z,15.43
2018-03-20T17:09:53.261Z,25.98
2018-03-20T17:12:20.798Z,19.23
2018-03-20T17:14:49.105Z,19.25
2018-03-20T17:17:16.649Z,16.52
2018-03-20T17:19:44.956Z,17.48
2018-03-20T17:22:12.482Z,16.70
2018-03-20T17:24:40.782Z,18.45
2018-03-20T17:27:08.303Z,23.45
2018-03-20T17:29:36.617Z,18.00
2018-03-20T17:32:04.144Z,17.00
2018-03-20T17:34:32.491Z,19.52
2018-03-20T17:37:00.020Z,17.75
2018-03-20T17:39:27.562Z,17.67
2018-03-20T17:41:55.113Z,16.30
2018-03-20T17:44:23.406Z,16.05
2018-03-20T17:46:50.950Z,18.27
2018-03-20T17:49:19.241Z,14.98
2018-03-20T17:51:46.806Z,16.02
2018-03-20T17:54:14.325Z,20.20
2018-03-20T17:56:41.876Z,18.23
2018-03-20T17:59:09.397Z,19.85
2018-03-20T18:01:36.952Z,29.83
2018-03-20T18:04:04.512Z,23.55
2018-03-20T18:06:32.080Z,20.92
2018-03-20T18:08:59.605Z,20.05
2018-03-20T18:11:27.148Z,23.60
2018-03-20T18:13:55.453Z,24.50
2018-03-20T18:16:22.988Z,21.50
2018-03-20T18:18:51.300Z,17.52
2018-03-20T18:21:18.837Z,23.27
2018-03-20T18:23:46.398Z,18.27
2018-03-20T18:26:13.937Z,26.35
2018-03-20T18:28:42.269Z,25.55
2018-03-20T18:31:09.799Z,22.67
2018-03-20T18:33:37.319Z,26.85
2018-03-20T18:36:04.860Z,24.70
2018-03-20T18:38:32.487Z,28.62
2018-03-20T18:41:00.035Z,25.60
2018-03-20T18:43:27.566Z,25.58
2018-03-20T18:45:55.905Z,27.98
2018-03-20T18:48:23.433Z,24.15
2018-03-20T18:50:50.959Z,24.02
2018-03-20T18:53:19.281Z,31.25
2018-03-20T18:55:46.811Z,25.60
2018-03-20T18:58:15.119Z,25.30
2018-03-20T19:00:42.661Z,21.92
2018-03-20T19:03:10.210Z,23.45
2018-03-20T19:05:38.540Z,20.70
2018-03-20T19:08:06.066Z,23.00
2018-03-20T19:10:33.599Z,21.27
2018-03-20T19:13:01.926Z,19.50
2018-03-20T19:15:29.475Z,17.55
2018-03-20T19:17:57.010Z,17.02
2018-03-20T19:20:24.571Z,15.50
2018-03-20T19:22:52.122Z,17.20
2018-03-20T19:25:19.671Z,21.92
2018-03-20T19:27:47.966Z,17.50
2018-03-20T19:30:15.560Z,21.48
2018-03-20T19:32:43.065Z,18.15
2018-03-20T19:35:11.390Z,15.73
2018-03-20T19:37:38.942Z,24.12
2018-03-20T19:40:06.476Z,24.17
2018-03-20T19:42:34.037Z,26.77
2018-03-20T19:45:01.564Z,19.17
2018-03-20T19:47:29.122Z,24.65
2018-03-20T19:49:56.668Z,15.32
2018-03-20T19:52:24.244Z,14.40
2018-03-20T19:54:52.559Z,17.98
2018-03-20T19:57:20.134Z,13.38
2018-03-20T19:59:47.670Z,16.15
2018-03-20T20:02:15.234Z,15.98
2018-03-20T20:04:42.759Z,18.37
2018-03-20T20:07:11.069Z,16.17
2018-03-20T20:09:38.638Z,15.98
2018-03-20T20:12:06.163Z,19.00
2018-03-20T20:14:34.490Z,17.37
2018-03-20T20:17:02.020Z,14.27
2018-03-20T20:19:29.584Z,16.35
2018-03-20T20:21:57.119Z,14.95
2018-03-20T20:24:25.449Z,18.73
2018-03-20T20:26:53.049Z,16.30
2018-03-20T20:29:21.373Z,19.12
2018-03-20T20:31:48.923Z,17.65
2018-03-20T20:34:16.443Z,15.77
2018-03-20T20:36:44.799Z,18.73
2018-03-20T20:39:12.323Z,20.15
2018-03-20T20:41:39.904Z,17.98
2018-03-20T20:44:07.452Z,23.62
2018-03-20T20:46:34.993Z,19.70
2018-03-20T20:49:02.537Z,16.67
2018-03-20T20:51:30.837Z,18.35
2018-03-20T20:53:58.378Z,17.50
2018-03-20T20:56:25.899Z,16.35
2018-03-20T20:58:53.447Z,21.80
2018-03-20T21:01:20.993Z,19.73
2018-03-20T21:03:48.547Z,19.42
2018-03-20T21:06:16.204Z,16.90
2018-03-20T21:08:43.753Z,16.30
2018-03-20T21:11:11.274Z,18.00
2018-03-20T21:13:39.602Z,20.45
2018-03-20T21:16:07.123Z,22.20
2018-03-20T21:18:35.473Z,19.85
2018-03-20T21:21:02.988Z,24.70
2018-03-20T21:23:30.522Z,20.15
2018-03-20T21:25:58.069Z,18.62
2018-03-20T21:28:26.355Z,19.92
2018-03-20T21:30:54.665Z,22.73
2018-03-20T21:33:22.185Z,17.70
2018-03-20T21:35:50.492Z,18.95
2018-03-20T21:38:18.020Z,18.55
2018-03-20T21:40:46.309Z,19.40
2018-03-20T21:43:13.854Z,19.62
2018-03-20T21:45:42.199Z,22.42
2018-03-20T21:48:09.739Z,19.70
2018-03-20T21:50:37.261Z,17.65
2018-03-20T21:53:04.803Z,16.65
2018-03-20T21:55:33.089Z,17.60
2018-03-20T21:58:01.388Z,17.92
2018-03-20T22:00:28.909Z,17.85
2018-03-20T22:02:57.223Z,17.27
2018-03-20T22:05:24.748Z,21.27
2018-03-20T22:07:53.049Z,16.87
2018-03-20T22:10:20.597Z,21.83
2018-03-20T22:12:48.904Z,20.70
2018-03-20T22:15:16.446Z,16.40
2018-03-20T22:17:43.969Z,16.12
2018-03-20T22:20:11.502Z,21.02
2018-03-20T22:22:39.039Z,19.50
2018-03-20T22:25:06.581Z,22.25
2018-03-20T22:27:34.103Z,21.73
2018-03-20T22:30:01.643Z,19.15
2018-03-20T22:32:29.194Z,23.83
2018-03-20T22:34:56.726Z,24.20
2018-03-20T22:37:24.286Z,23.90
2018-03-20T22:39:51.811Z,30.60
2018-03-20T22:42:20.121Z,18.42
2018-03-20T22:44:47.646Z,29.52
2018-03-20T22:47:15.964Z,24.25
2018-03-20T22:49:43.530Z,26.10
2018-03-20T22:52:11.077Z,31.87
2018-03-20T22:54:38.620Z,25.65
2018-03-20T22:57:06.924Z,29.02
2018-03-20T22:59:34.485Z,28.38
2018-03-20T23:02:02.005Z,30.33
2018-03-20T23:04:30.312Z,24.73
2018-03-20T23:06:57.854Z,24.65
2018-03-20T23:09:25.405Z,24.83
2018-03-20T23:11:53.698Z,27.10
2018-03-20T23:14:21.247Z,27.65
2018-03-20T23:16:48.762Z,34.13
2018-03-20T23:19:16.300Z,36.88
2018-03-20T23:21:43.846Z,29.27
2018-03-20T23:24:11.378Z,27.40
2018-03-20T23:26:39.686Z,27.52
2018-03-20T23:29:07.218Z,26.67
2018-03-20T23:31:34.755Z,22.10
2018-03-20T23:34:03.049Z,24.30
2018-03-20T23:36:31.355Z,22.77
2018-03-20T23:38:58.867Z,23.80
2018-03-20T23:41:27.184Z,23.55
2018-03-20T23:43:54.703Z,26.62
2018-03-20T23:46:23.010Z,27.83
2018-03-20T23:48:50.559Z,27.37
2018-03-20T23:51:18.088Z,26.27
2018-03-20T23:53:45.626Z,25.27
2018-03-20T23:56:13.143Z,26.58
2018-03-20T23:58:40.684Z,27.65
